Time;durP1;ratioP1;P1;durP2;ratioP2;P2;SDS_P1;SDS_P2;PMS_P1;PMS_P2;Temp;Humidity;BMP_temperature;BMP_pressure;BME280_temperature;BME280_humidity;BME280_pressure;Samples;Min_cycle;Max_cycle;Signal;HPM_P1;HPM_P2
2021/12/31 00:00:17;;;;;;;0.93;0.83;;;15.40;1.00;;;;;;5055562;28;20429;-64
2021/12/31 00:02:43;;;;;;;2.77;0.70;;;;;;;;;;5054224;28;20448;-63
2021/12/31 00:05:10;;;;;;;0.73;0.60;;;15.40;1.00;;;;;;5060037;28;20230;-64
2021/12/31 00:07:35;;;;;;;1.03;0.90;;;15.30;1.00;;;;;;5056641;28;20835;-63
2021/12/31 00:10:01;;;;;;;0.70;0.70;;;;;;;;;;5049153;28;20442;-63
2021/12/31 00:12:28;;;;;;;0.73;0.73;;;15.40;1.00;;;;;;5047704;28;20671;-63
2021/12/31 00:14:54;;;;;;;0.80;0.70;;;;;;;;;;5052645;28;20926;-63
2021/12/31 00:17:20;;;;;;;0.70;0.70;;;;;;;;;;5055159;28;20410;-64
2021/12/31 00:19:47;;;;;;;0.80;0.80;;;;;;;;;;5050888;28;20560;-62
2021/12/31 00:24:58;;;;;;;0.97;0.90;;;15.40;1.00;;;;;;5055318;28;20497;-63
2021/12/31 00:27:24;;;;;;;0.80;0.70;;;15.40;1.00;;;;;;5049995;28;20912;-62
2021/12/31 00:29:50;;;;;;;1.03;0.90;;;;;;;;;;5056996;28;20429;-63
2021/12/31 00:32:18;;;;;;;0.93;0.60;;;;;;;;;;5054652;28;20288;-62
2021/12/31 00:34:44;;;;;;;0.63;0.63;;;;;;;;;;5052799;28;20451;-63
2021/12/31 00:37:10;;;;;;;0.70;0.60;;;;;;;;;;5056201;28;20489;-62
2021/12/31 00:39:35;;;;;;;2.20;1.07;;;15.40;1.00;;;;;;5054226;28;20450;-63
2021/12/31 00:42:03;;;;;;;0.77;0.63;;;15.30;1.00;;;;;;5052676;28;20498;-64
2021/12/31 00:44:29;;;;;;;1.57;0.60;;;;;;;;;;5057606;28;20193;-64
2021/12/31 00:46:55;;;;;;;1.13;0.83;;;;;;;;;;5055094;28;20473;-62
2021/12/31 00:49:20;;;;;;;0.87;0.70;;;15.40;1.00;;;;;;5054344;28;20458;-64
2021/12/31 00:51:46;;;;;;;1.10;0.67;;;;;;;;;;5049234;28;20439;-63
2021/12/31 00:54:12;;;;;;;0.63;0.63;;;15.40;1.00;;;;;;5055585;28;20214;-64
2021/12/31 00:56:38;;;;;;;0.90;0.90;;;;;;;;;;5054286;28;20449;-63
2021/12/31 00:59:04;;;;;;;0.80;0.80;;;15.50;1.00;;;;;;5050448;28;20181;-62
2021/12/31 01:01:31;;;;;;;0.80;0.70;;;15.00;1.00;;;;;;5043301;28;20543;-63
2021/12/31 01:03:57;;;;;;;1.00;0.90;;;;;;;;;;5055896;28;20250;-62
2021/12/31 01:06:23;;;;;;;0.50;0.50;;;;;;;;;;5063677;28;20417;-63
2021/12/31 01:08:49;;;;;;;0.97;0.97;;;;;;;;;;5054209;28;20537;-64
2021/12/31 01:11:15;;;;;;;0.80;0.70;;;;;;;;;;5055335;28;20459;-62
2021/12/31 01:13:58;;;;;;;0.77;0.77;;;15.50;1.00;;;;;;5059766;28;20521;-63
2021/12/31 01:16:34;;;;;;;1.27;0.80;;;15.40;1.00;;;;;;5047303;28;20446;-62
2021/12/31 01:21:26;;;;;;;0.80;0.80;;;;;;;;;;5052970;28;20458;-62
2021/12/31 01:23:52;;;;;;;0.80;0.70;;;;;;;;;;5059308;28;20185;-63
2021/12/31 01:26:18;;;;;;;2.20;0.80;;;;;;;;;;5049715;28;20968;-61
2021/12/31 01:28:45;;;;;;;0.90;0.50;;;15.30;1.00;;;;;;5060146;28;20903;-62
2021/12/31 01:31:11;;;;;;;1.60;0.77;;;;;;;;;;5058471;28;20450;-61
2021/12/31 01:33:37;;;;;;;1.53;0.90;;;;;;;;;;5055464;28;20540;-63
2021/12/31 01:36:05;;;;;;;0.80;0.63;;;;;;;;;;5060899;28;20512;-63
2021/12/31 01:38:31;;;;;;;1.00;0.70;;;;;;;;;;5054173;28;20939;-62
2021/12/31 01:40:57;;;;;;;0.87;0.70;;;15.40;1.00;;;;;;5053479;28;20426;-62
2021/12/31 01:43:23;;;;;;;0.57;0.57;;;;;;;;;;5052253;28;20450;-63
2021/12/31 01:45:55;;;;;;;1.73;0.77;;;;;;;;;;5053405;28;20431;-62
2021/12/31 01:48:32;;;;;;;1.00;0.77;;;15.50;1.00;;;;;;5047758;28;20423;-64
2021/12/31 01:50:58;;;;;;;0.80;0.63;;;;;;;;;;5061952;28;20428;-62
2021/12/31 01:53:26;;;;;;;1.23;0.70;;;15.50;1.00;;;;;;5053715;28;20498;-64
2021/12/31 01:55:56;;;;;;;0.63;0.50;;;15.40;1.00;;;;;;5053489;28;20429;-61
2021/12/31 01:58:23;;;;;;;0.60;0.50;;;15.40;1.00;;;;;;5059558;28;20500;-61
2021/12/31 02:00:49;;;;;;;1.57;0.80;;;;;;;;;;5047218;28;22036;-64
2021/12/31 02:03:17;;;;;;;0.80;0.50;;;15.40;1.00;;;;;;5042527;28;20438;-62
2021/12/31 02:05:43;;;;;;;1.13;1.03;;;;;;;;;;5039370;28;20784;-65
2021/12/31 02:08:09;;;;;;;0.93;0.63;;;;;;;;;;5048057;28;20425;-62
2021/12/31 02:10:35;;;;;;;0.60;0.50;;;;;;;;;;5046888;28;20640;-62
2021/12/31 02:13:01;;;;;;;0.50;0.50;;;15.60;1.00;;;;;;5050601;28;20510;-63
2021/12/31 02:15:29;;;;;;;0.60;0.60;;;15.50;1.00;;;;;;5046479;28;20430;-62
2021/12/31 02:17:56;;;;;;;0.70;0.70;;;15.40;1.00;;;;;;5045858;28;20199;-61
2021/12/31 02:20:32;;;;;;;0.40;0.40;;;15.40;1.00;;;;;;5043982;28;20502;-62
2021/12/31 02:23:06;;;;;;;1.77;0.90;;;15.40;1.00;;;;;;5049525;28;20425;-62
2021/12/31 02:25:33;;;;;;;0.50;0.50;;;;;;;;;;5051863;28;20783;-61
2021/12/31 02:27:59;;;;;;;1.63;0.50;;;15.40;1.00;;;;;;5056516;28;20478;-62
2021/12/31 02:30:25;;;;;;;0.63;0.60;;;15.40;1.00;;;;;;5053436;28;20944;-62
2021/12/31 02:32:50;;;;;;;1.10;1.00;;;15.40;1.00;;;;;;5055882;28;21188;-61
2021/12/31 02:35:17;;;;;;;1.60;0.60;;;15.40;1.00;;;;;;5054853;28;20498;-64
2021/12/31 02:37:43;;;;;;;0.70;0.70;;;;;;;;;;5047796;28;20247;-61
2021/12/31 02:40:12;;;;;;;0.50;0.50;;;15.40;1.00;;;;;;5059228;28;20425;-63
2021/12/31 02:42:39;;;;;;;0.70;0.63;;;20.10;1.00;;;;;;5050157;28;20457;-62
2021/12/31 02:45:09;;;;;;;1.17;0.60;;;15.40;1.00;;;;;;5053964;28;20509;-63
2021/12/31 02:47:38;;;;;;;0.67;0.67;;;15.40;1.00;;;;;;5058180;28;20450;-63
2021/12/31 02:50:05;;;;;;;0.63;0.60;;;;;;;;;;5057218;28;20478;-63
2021/12/31 02:52:32;;;;;;;3.80;0.60;;;15.30;1.00;;;;;;5047422;28;20520;-63
2021/12/31 02:55:00;;;;;;;0.80;0.70;;;15.50;1.00;;;;;;5049857;28;20469;-63
2021/12/31 02:57:26;;;;;;;0.60;0.60;;;15.50;1.00;;;;;;5048872;28;20456;-62
2021/12/31 02:59:52;;;;;;;1.33;0.50;;;;;;;;;;5052291;28;20477;-63
2021/12/31 03:02:24;;;;;;;1.00;0.50;;;15.50;1.00;;;;;;5050275;28;20224;-63
2021/12/31 03:04:51;;;;;;;0.40;0.40;;;;;;;;;;5049248;28;20425;-63
2021/12/31 03:07:18;;;;;;;0.60;0.50;;;15.60;1.00;;;;;;5054154;28;20939;-63
2021/12/31 03:09:47;;;;;;;0.70;0.57;;;15.60;1.00;;;;;;5050211;28;20456;-63
2021/12/31 03:12:14;;;;;;;0.73;0.70;;;15.50;1.00;;;;;;5049866;28;20470;-63
2021/12/31 03:14:43;;;;;;;1.43;0.80;;;15.50;1.00;;;;;;5059663;28;20434;-62
2021/12/31 03:17:09;;;;;;;0.70;0.70;;;15.50;1.00;;;;;;5050134;28;20820;-61
2021/12/31 03:19:36;;;;;;;1.27;0.70;;;15.50;1.00;;;;;;5056596;28;20481;-62
2021/12/31 03:22:02;;;;;;;1.27;0.70;;;15.50;1.00;;;;;;5052319;28;20459;-62
2021/12/31 03:24:27;;;;;;;0.90;0.70;;;15.60;1.00;;;;;;5048410;28;20524;-62
2021/12/31 03:26:53;;;;;;;0.53;0.53;;;;;;;;;;5051381;28;20249;-62
2021/12/31 03:29:19;;;;;;;0.73;0.60;;;15.50;1.00;;;;;;5056506;28;20199;-63
2021/12/31 03:31:44;;;;;;;0.60;0.57;;;15.40;1.00;;;;;;5058104;28;20502;-64
2021/12/31 03:34:13;;;;;;;2.40;0.60;;;;;;;;;;5052690;28;20189;-64
2021/12/31 03:36:39;;;;;;;0.50;0.50;;;;;;;;;;5053588;28;20183;-63
2021/12/31 03:39:06;;;;;;;1.20;0.60;;;;;;;;;;5062999;28;20422;-63
2021/12/31 03:41:32;;;;;;;1.30;0.63;;;;;;;;;;5052331;28;20425;-63
2021/12/31 03:43:57;;;;;;;0.70;0.70;;;15.40;1.00;;;;;;5049645;28;20544;-63
2021/12/31 03:46:23;;;;;;;1.10;0.53;;;;;;;;;;5047124;28;20463;-62
2021/12/31 03:48:49;;;;;;;1.13;0.63;;;15.40;1.00;;;;;;5052091;28;20197;-63
2021/12/31 03:51:14;;;;;;;1.53;0.70;;;15.40;1.00;;;;;;5053167;28;20448;-63
2021/12/31 03:53:40;;;;;;;0.60;0.60;;;;;;;;;;5050775;28;20189;-62
2021/12/31 03:56:06;;;;;;;2.17;0.77;;;;;;;;;;5045050;28;20259;-62
2021/12/31 03:58:32;;;;;;;2.13;0.60;;;;;;;;;;5054949;28;20488;-63
2021/12/31 04:00:58;;;;;;;0.60;0.60;;;15.50;1.00;;;;;;5052497;28;20919;-63
2021/12/31 04:03:24;;;;;;;0.57;0.50;;;;;;;;;;5047941;28;20434;-62
2021/12/31 04:05:50;;;;;;;1.17;0.70;;;;;;;;;;5050647;28;20205;-62
2021/12/31 04:08:16;;;;;;;0.70;0.67;;;;;;;;;;5045128;28;20989;-62
2021/12/31 04:10:43;;;;;;;0.77;0.70;;;;;;;;;;5042630;28;20489;-61
2021/12/31 04:13:09;;;;;;;0.93;0.77;;;;;;;;;;5042487;28;20554;-62
2021/12/31 04:15:35;;;;;;;0.67;0.67;;;;;;;;;;5048930;28;20988;-62
2021/12/31 04:18:01;;;;;;;0.73;0.63;;;;;;;;;;5052040;28;20450;-62
2021/12/31 04:23:01;;;;;;;1.10;0.60;;;15.00;1.00;;;;;;5047768;28;20476;-62
2021/12/31 04:25:27;;;;;;;0.80;0.77;;;;;;;;;;5055788;28;20447;-62
2021/12/31 04:27:52;;;;;;;1.23;0.50;;;14.90;1.00;;;;;;5059476;28;20479;-63
2021/12/31 04:30:18;;;;;;;0.67;0.63;;;14.90;1.00;;;;;;5055875;28;20533;-63
2021/12/31 04:32:43;;;;;;;2.57;0.87;;;14.80;1.00;;;;;;5050527;28;20267;-63
2021/12/31 04:35:13;;;;;;;1.10;0.60;;;14.90;1.00;;;;;;5059662;28;20188;-62
2021/12/31 04:37:42;;;;;;;2.17;0.70;;;14.80;1.00;;;;;;5050031;28;20191;-63
2021/12/31 04:40:09;;;;;;;0.80;0.70;;;14.80;1.00;;;;;;5063131;28;22015;-63
2021/12/31 04:42:35;;;;;;;1.93;0.80;;;;;;;;;;5046264;28;20501;-63
2021/12/31 04:45:03;;;;;;;0.90;0.73;;;14.80;1.00;;;;;;5056500;28;20991;-63
2021/12/31 04:47:28;;;;;;;0.60;0.60;;;14.80;1.00;;;;;;5053532;28;20418;-61
2021/12/31 04:49:54;;;;;;;2.33;0.90;;;14.80;1.00;;;;;;5052797;28;20510;-62
2021/12/31 04:52:20;;;;;;;1.40;0.73;;;;;;;;;;5053505;28;20209;-63
2021/12/31 04:54:45;;;;;;;0.87;0.77;;;14.80;1.00;;;;;;5047115;28;20189;-62
2021/12/31 04:57:11;;;;;;;1.57;0.73;;;14.80;1.00;;;;;;5045950;28;20433;-62
2021/12/31 04:59:36;;;;;;;1.10;1.00;;;14.80;1.00;;;;;;5055132;28;20181;-62
2021/12/31 05:02:02;;;;;;;1.90;1.00;;;14.80;1.00;;;;;;5056022;28;20192;-63
2021/12/31 05:04:28;;;;;;;0.60;0.60;;;;;;;;;;5047170;28;20654;-63
2021/12/31 05:06:54;;;;;;;0.87;0.83;;;;;;;;;;5049041;28;20654;-63
2021/12/31 05:09:20;;;;;;;0.60;0.60;;;15.00;1.00;;;;;;5045718;28;20493;-61
2021/12/31 05:11:46;;;;;;;0.70;0.70;;;;;;;;;;5041969;28;20451;-63
2021/12/31 05:14:12;;;;;;;0.90;0.70;;;;;;;;;;5043735;28;20185;-63
2021/12/31 05:16:38;;;;;;;1.30;1.00;;;;;;;;;;5052812;28;20470;-61
2021/12/31 05:19:04;;;;;;;0.87;0.80;;;;;;;;;;5053034;28;20417;-62
2021/12/31 05:21:31;;;;;;;1.10;0.80;;;15.20;1.00;;;;;;5053508;28;20810;-62
2021/12/31 05:23:57;;;;;;;1.03;0.83;;;15.30;1.00;;;;;;5056313;28;20432;-61
2021/12/31 05:26:23;;;;;;;0.80;0.80;;;15.10;1.00;;;;;;5053315;28;20551;-62
2021/12/31 05:28:49;;;;;;;0.73;0.70;;;;;;;;;;5054108;28;20947;-62
2021/12/31 05:31:16;;;;;;;0.80;0.80;;;15.20;1.00;;;;;;5053790;28;20457;-61
2021/12/31 05:33:41;;;;;;;1.63;1.00;;;15.20;1.00;;;;;;5043470;28;20429;-62
2021/12/31 05:36:07;;;;;;;0.93;0.73;;;;;;;;;;5052322;28;20452;-63
2021/12/31 05:38:33;;;;;;;0.70;0.70;;;15.20;1.00;;;;;;5055045;28;20187;-62
2021/12/31 05:40:59;;;;;;;1.07;0.67;;;;;;;;;;5057113;28;21003;-61
2021/12/31 05:43:25;;;;;;;2.27;0.60;;;;;;;;;;5058514;28;20728;-62
2021/12/31 05:45:51;;;;;;;0.80;0.80;;;15.20;1.00;;;;;;5054881;28;20445;-61
2021/12/31 05:48:16;;;;;;;1.00;0.80;;;15.20;1.00;;;;;;5050899;28;20450;-62
2021/12/31 05:50:42;;;;;;;0.63;0.63;;;15.20;1.00;;;;;;5060182;28;20182;-63
2021/12/31 05:53:08;;;;;;;1.33;0.87;;;;;;;;;;5056759;28;20215;-63
2021/12/31 05:55:34;;;;;;;1.33;0.50;;;15.10;1.00;;;;;;5055401;28;20779;-61
2021/12/31 05:58:02;;;;;;;0.73;0.73;;;15.20;1.00;;;;;;5057844;28;20504;-62
2021/12/31 06:00:28;;;;;;;0.87;0.73;;;;;;;;;;5060252;28;20458;-62
2021/12/31 06:02:55;;;;;;;1.13;0.80;;;15.20;1.00;;;;;;5057172;28;20603;-62
2021/12/31 06:05:23;;;;;;;1.10;0.50;;;;;;;;;;5045002;28;20483;-63
2021/12/31 06:07:49;;;;;;;1.07;0.80;;;15.00;1.00;;;;;;5045743;28;20466;-62
2021/12/31 06:10:15;;;;;;;0.60;0.60;;;;;;;;;;5045863;28;20459;-62
2021/12/31 06:12:42;;;;;;;1.43;0.80;;;14.90;1.00;;;;;;5049011;28;20957;-63
2021/12/31 06:15:09;;;;;;;1.70;1.60;;;14.90;1.00;;;;;;5046125;28;20422;-64
2021/12/31 06:17:36;;;;;;;0.63;0.60;;;15.00;1.00;;;;;;5042322;28;20566;-62
2021/12/31 06:20:02;;;;;;;1.77;0.87;;;;;;;;;;5046078;28;20420;-63
2021/12/31 06:22:29;;;;;;;0.67;0.67;;;15.20;1.00;;;;;;5053766;28;20864;-63
2021/12/31 06:24:55;;;;;;;2.00;0.57;;;;;;;;;;5052155;28;20429;-62
2021/12/31 06:27:21;;;;;;;0.70;0.67;;;;;;;;;;5050418;28;20481;-62
2021/12/31 06:29:47;;;;;;;0.67;0.63;;;15.20;1.00;;;;;;5054353;28;20420;-63
2021/12/31 06:32:13;;;;;;;0.70;0.70;;;;;;;;;;5059935;28;20479;-62
2021/12/31 06:34:38;;;;;;;0.60;0.60;;;15.10;1.00;;;;;;5056412;28;20563;-61
2021/12/31 06:37:04;;;;;;;0.70;0.60;;;;;;;;;;5056244;28;20180;-62
2021/12/31 06:39:30;;;;;;;0.70;0.70;;;;;;;;;;5050343;28;20395;-63
2021/12/31 06:41:56;;;;;;;0.70;0.70;;;;;;;;;;5054823;28;20453;-63
2021/12/31 06:44:22;;;;;;;1.27;1.00;;;15.20;1.00;;;;;;5058878;28;20433;-61
2021/12/31 06:46:47;;;;;;;0.70;0.60;;;15.20;1.00;;;;;;5051862;28;20859;-63
2021/12/31 06:49:13;;;;;;;3.03;1.10;;;15.20;1.00;;;;;;5044826;28;20654;-61
2021/12/31 06:51:39;;;;;;;0.70;0.70;;;;;;;;;;5050210;28;20203;-62
2021/12/31 06:54:05;;;;;;;0.80;0.63;;;;;;;;;;5054611;28;20438;-63
2021/12/31 06:56:31;;;;;;;0.83;0.70;;;15.30;1.00;;;;;;5051744;28;20437;-61
2021/12/31 06:58:58;;;;;;;0.73;0.60;;;15.20;1.00;;;;;;5071807;28;20405;-62
2021/12/31 07:01:24;;;;;;;0.60;0.60;;;;;;;;;;5067464;28;20213;-63
2021/12/31 07:03:50;;;;;;;0.80;0.80;;;;;;;;;;5051531;28;20442;-61
2021/12/31 07:06:16;;;;;;;0.87;0.70;;;15.40;1.00;;;;;;5055529;28;20405;-62
2021/12/31 07:08:41;;;;;;;0.90;0.80;;;15.30;1.00;;;;;;5054155;28;20457;-62
2021/12/31 07:11:07;;;;;;;1.50;0.97;;;15.30;1.00;;;;;;5054914;28;20189;-62
2021/12/31 07:13:35;;;;;;;1.30;0.97;;;;;;;;;;5051528;28;20208;-62
2021/12/31 07:16:01;;;;;;;1.43;0.60;;;;;;;;;;5051551;28;20511;-63
2021/12/31 07:18:27;;;;;;;1.67;0.80;;;15.30;1.00;;;;;;5051352;28;20433;-61
2021/12/31 07:20:53;;;;;;;1.67;0.80;;;15.40;1.00;;;;;;5056900;28;20466;-61
2021/12/31 07:23:20;;;;;;;1.13;0.57;;;15.20;1.00;;;;;;5068120;28;20212;-62
2021/12/31 07:25:46;;;;;;;1.13;0.93;;;15.30;1.00;;;;;;5073153;28;20208;-61
2021/12/31 07:28:13;;;;;;;1.00;0.93;;;15.40;1.00;;;;;;5075040;28;20471;-61
2021/12/31 07:30:39;;;;;;;1.00;0.90;;;15.40;1.00;;;;;;5069839;28;20181;-63
2021/12/31 07:33:05;;;;;;;2.00;1.00;;;15.40;1.00;;;;;;5064209;28;20429;-60
2021/12/31 07:35:32;;;;;;;0.60;0.60;;;;;;;;;;5064526;28;20442;-61
2021/12/31 07:37:59;;;;;;;0.60;0.60;;;15.50;1.00;;;;;;5054926;28;20948;-62
2021/12/31 07:40:36;;;;;;;0.83;0.53;;;15.50;1.00;;;;;;5070076;28;20534;-61
2021/12/31 07:43:02;;;;;;;0.80;0.80;;;;;;;;;;5064431;28;20409;-61
2021/12/31 07:45:28;;;;;;;0.80;0.80;;;;;;;;;;5060102;28;20439;-62
2021/12/31 07:47:54;;;;;;;1.03;0.80;;;15.50;1.00;;;;;;5054612;28;20434;-63
2021/12/31 07:50:20;;;;;;;0.80;0.80;;;15.60;1.00;;;;;;5054686;28;20557;-60
2021/12/31 07:52:45;;;;;;;1.07;0.70;;;;;;;;;;5054560;28;20213;-60
2021/12/31 07:55:11;;;;;;;1.00;0.90;;;15.50;1.00;;;;;;5057775;28;20192;-61
2021/12/31 07:57:38;;;;;;;2.10;0.83;;;15.50;1.00;;;;;;5057781;28;20437;-62
2021/12/31 08:00:05;;;;;;;1.40;0.77;;;15.50;1.00;;;;;;5061467;28;20252;-63
2021/12/31 08:02:31;;;;;;;2.13;1.00;;;15.50;1.00;;;;;;5051968;28;20419;-62
2021/12/31 08:04:57;;;;;;;0.90;0.70;;;;;;;;;;5064180;28;20416;-62
2021/12/31 08:07:23;;;;;;;1.80;0.80;;;;;;;;;;5061332;28;20231;-62
2021/12/31 08:09:48;;;;;;;1.30;0.87;;;15.40;1.00;;;;;;5051719;28;20429;-61
2021/12/31 08:12:14;;;;;;;1.00;1.00;;;;;;;;;;5060723;28;20463;-61
2021/12/31 08:14:40;;;;;;;2.10;0.90;;;;;;;;;;5064074;28;20178;-62
2021/12/31 08:17:06;;;;;;;1.87;0.83;;;;;;;;;;5073098;28;20961;-62
2021/12/31 08:19:32;;;;;;;1.50;0.80;;;15.50;1.00;;;;;;5064645;28;20430;-61
2021/12/31 08:21:58;;;;;;;1.00;0.90;;;;;;;;;;5068960;28;20484;-62
2021/12/31 08:24:24;;;;;;;1.87;0.80;;;;;;;;;;5060831;28;20238;-59
2021/12/31 08:26:50;;;;;;;1.90;0.90;;;;;;;;;;5058763;28;20466;-62
2021/12/31 08:29:15;;;;;;;1.00;0.90;;;;;;;;;;5058263;28;20422;-61
2021/12/31 08:31:42;;;;;;;1.23;0.97;;;15.60;1.00;;;;;;5060123;28;20524;-62
2021/12/31 08:34:11;;;;;;;0.90;0.70;;;15.70;1.00;;;;;;5056165;28;20485;-61
2021/12/31 08:36:37;;;;;;;1.50;0.83;;;;;;;;;;5057560;28;20809;-62
2021/12/31 08:39:05;;;;;;;0.90;0.77;;;15.70;1.00;;;;;;5051840;28;20422;-63
2021/12/31 08:41:31;;;;;;;1.10;0.83;;;15.80;1.00;;;;;;5054803;28;20453;-61
2021/12/31 08:43:57;;;;;;;1.20;1.00;;;15.80;1.00;;;;;;5063656;28;20448;-61
2021/12/31 08:46:23;;;;;;;1.00;0.83;;;15.90;1.00;;;;;;5062877;28;20449;-61
2021/12/31 08:48:49;;;;;;;1.00;1.00;;;;;;;;;;5061110;28;20202;-61
2021/12/31 08:51:15;;;;;;;1.77;0.90;;;;;;;;;;5051729;28;20538;-59
2021/12/31 08:53:41;;;;;;;1.50;0.90;;;;;;;;;;5053053;28;20875;-59
2021/12/31 08:56:07;;;;;;;0.93;0.93;;;15.90;1.00;;;;;;5056878;28;20424;-60
2021/12/31 08:58:33;;;;;;;1.10;1.00;;;;;;;;;;5047787;28;20537;-61
2021/12/31 09:01:00;;;;;;;1.30;0.90;;;15.70;1.00;;;;;;5049085;28;20196;-61
2021/12/31 09:03:26;;;;;;;1.53;1.10;;;;;;;;;;5049905;28;20767;-60
2021/12/31 09:05:52;;;;;;;1.03;0.90;;;;;;;;;;5050131;28;20431;-61
2021/12/31 09:08:18;;;;;;;1.87;1.00;;;;;;;;;;5050307;28;21004;-61
2021/12/31 09:10:44;;;;;;;1.13;1.00;;;;;;;;;;5052935;28;20448;-60
2021/12/31 09:13:09;;;;;;;1.17;0.70;;;15.80;1.00;;;;;;5055153;28;20481;-60
2021/12/31 09:15:35;;;;;;;1.80;1.07;;;15.80;1.00;;;;;;5070283;28;20900;-62
2021/12/31 09:18:01;;;;;;;0.60;0.60;;;;;;;;;;5068616;28;20191;-60
2021/12/31 09:20:28;;;;;;;1.93;1.13;;;;;;;;;;5068185;28;20661;-62
2021/12/31 09:22:54;;;;;;;0.80;0.80;;;;;;;;;;5069713;28;20500;-62
2021/12/31 09:25:20;;;;;;;2.20;1.00;;;15.80;1.00;;;;;;5062039;28;20413;-59
2021/12/31 09:27:46;;;;;;;1.10;0.90;;;;;;;;;;5069282;28;20479;-61
2021/12/31 09:30:13;;;;;;;3.13;1.97;;;15.90;1.00;;;;;;5059285;28;20919;-59
2021/12/31 09:32:39;;;;;;;1.30;1.20;;;15.90;1.00;;;;;;5049825;28;20471;-60
2021/12/31 09:35:06;;;;;;;2.10;0.80;;;;;;;;;;5048161;28;20844;-60
2021/12/31 09:37:32;;;;;;;1.17;0.93;;;;;;;;;;5049103;28;20435;-60
2021/12/31 09:39:58;;;;;;;1.07;0.97;;;;;;;;;;5065930;28;20489;-61
2021/12/31 09:42:24;;;;;;;1.87;0.90;;;16.00;1.00;;;;;;5069436;28;20412;-60
2021/12/31 09:44:50;;;;;;;1.30;1.20;;;16.10;1.00;;;;;;5060521;28;20435;-60
2021/12/31 09:47:17;;;;;;;1.40;1.00;;;16.20;1.00;;;;;;5059518;28;20274;-61
2021/12/31 09:49:43;;;;;;;1.83;0.90;;;;;;;;;;5063829;28;20189;-62
2021/12/31 09:52:12;;;;;;;2.00;1.13;;;16.20;1.00;;;;;;5057935;28;20494;-62
2021/12/31 09:54:48;;;;;;;1.43;0.90;;;16.30;1.00;;;;;;5056523;28;20928;-62
2021/12/31 09:57:20;;;;;;;1.70;1.20;;;16.30;1.00;;;;;;5057982;28;20452;-59
2021/12/31 09:59:47;;;;;;;1.60;0.90;;;16.30;1.00;;;;;;5060608;28;20448;-61
2021/12/31 10:02:15;;;;;;;0.90;0.90;;;16.50;1.00;;;;;;5062064;28;20520;-60
2021/12/31 10:04:54;;;;;;;1.63;1.00;;;16.50;1.00;;;;;;5059989;28;20432;-59
2021/12/31 10:07:20;;;;;;;1.70;0.93;;;16.60;1.00;;;;;;5055624;28;20967;-60
2021/12/31 10:10:07;;;;;;;1.93;0.90;;;16.50;1.00;;;;;;5056506;28;20449;-59
2021/12/31 10:12:48;;;;;;;1.20;1.10;;;16.50;1.00;;;;;;5057380;28;20466;-60
2021/12/31 10:15:16;;;;;;;1.97;1.27;;;16.40;1.00;;;;;;5053483;28;20467;-59
2021/12/31 10:17:42;;;;;;;1.00;0.97;;;16.40;1.00;;;;;;5056617;28;20447;-60
2021/12/31 10:20:08;;;;;;;1.10;1.00;;;16.40;1.00;;;;;;5063217;28;20425;-60
2021/12/31 10:22:34;;;;;;;1.20;1.07;;;16.40;1.00;;;;;;5059302;28;20651;-60
2021/12/31 10:25:00;;;;;;;1.40;1.10;;;;;;;;;;5059513;28;20423;-60
2021/12/31 10:27:26;;;;;;;1.20;0.90;;;;;;;;;;5055225;28;20433;-59
2021/12/31 10:30:00;;;;;;;2.10;1.23;;;16.60;1.00;;;;;;5059730;28;20480;-59
2021/12/31 10:32:40;;;;;;;1.60;1.00;;;16.70;1.00;;;;;;5060110;28;21024;-60
2021/12/31 10:35:12;;;;;;;1.60;1.50;;;;;;;;;;5057643;28;20940;-59
2021/12/31 10:37:47;;;;;;;2.10;1.33;;;16.70;1.00;;;;;;5063107;28;20426;-61
2021/12/31 10:40:36;;;;;;;3.27;1.10;;;16.80;1.00;;;;;;5064149;28;20440;-59
2021/12/31 10:43:15;;;;;;;1.13;1.03;;;16.90;1.00;;;;;;5060179;28;20508;-62
2021/12/31 10:45:55;;;;;;;1.43;0.80;;;17.00;1.00;;;;;;5061550;28;20458;-60
2021/12/31 10:48:21;;;;;;;1.30;1.20;;;;;;;;;;5054536;28;20485;-58
2021/12/31 10:50:53;;;;;;;1.83;0.90;;;;;;;;;;5061129;28;20543;-59
2021/12/31 10:53:33;;;;;;;1.53;1.30;;;17.10;1.00;;;;;;5062613;28;20471;-59
2021/12/31 10:56:12;;;;;;;1.83;1.17;;;17.10;1.00;;;;;;5054209;28;20594;-60
2021/12/31 10:58:41;;;;;;;2.10;1.00;;;17.00;1.00;;;;;;5050588;28;20410;-60
2021/12/31 11:01:12;;;;;;;1.47;1.20;;;17.10;1.00;;;;;;5059726;28;20436;-61
2021/12/31 11:03:39;;;;;;;3.23;1.30;;;17.00;1.00;;;;;;5061343;28;20431;-59
2021/12/31 11:06:07;;;;;;;0.80;0.80;;;;;;;;;;5058530;28;20490;-60
2021/12/31 11:08:34;;;;;;;1.10;0.93;;;17.00;1.00;;;;;;5052423;28;20416;-60
2021/12/31 11:11:04;;;;;;;1.10;1.00;;;17.10;1.00;;;;;;5051144;28;20415;-60
2021/12/31 11:13:30;;;;;;;2.27;1.10;;;;;;;;;;5050098;28;20466;-60
2021/12/31 11:15:58;;;;;;;1.40;0.90;;;17.30;1.00;;;;;;5068042;28;20442;-60
2021/12/31 11:18:24;;;;;;;1.37;1.20;;;;;;;;;;5049895;28;20959;-61
2021/12/31 11:20:53;;;;;;;1.20;1.00;;;17.30;1.00;;;;;;5051999;28;20459;-60
2021/12/31 11:23:27;;;;;;;1.20;1.07;;;17.40;1.00;;;;;;5051609;28;21000;-59
2021/12/31 11:25:59;;;;;;;1.47;0.90;;;17.50;1.00;;;;;;5051723;28;20418;-60
2021/12/31 11:28:27;;;;;;;1.57;1.00;;;17.30;1.00;;;;;;5051980;28;20463;-60
2021/12/31 11:30:56;;;;;;;1.03;0.87;;;17.40;1.00;;;;;;5051828;28;20417;-60
2021/12/31 11:33:26;;;;;;;2.40;0.90;;;17.60;1.00;;;;;;5051341;28;21049;-61
2021/12/31 11:36:06;;;;;;;1.50;0.90;;;17.40;1.00;;;;;;5052246;28;20495;-61
2021/12/31 11:38:31;;;;;;;3.33;1.10;;;17.40;1.00;;;;;;5051737;28;20450;-59
2021/12/31 11:41:04;;;;;;;1.77;1.10;;;17.40;1.00;;;;;;5051904;28;20414;-60
2021/12/31 11:43:31;;;;;;;1.43;1.00;;;17.60;1.00;;;;;;5051520;28;20256;-60
2021/12/31 11:46:26;;;;;;;1.40;1.30;;;17.60;1.00;;;;;;5052185;28;20903;-61
2021/12/31 11:48:54;;;;;;;1.40;1.30;;;17.80;1.00;;;;;;5050913;28;20427;-61
2021/12/31 11:51:22;;;;;;;3.73;1.30;;;17.90;1.00;;;;;;5060568;28;20436;-60
2021/12/31 11:54:03;;;;;;;1.10;1.00;;;17.90;1.00;;;;;;5058554;28;20420;-60
2021/12/31 11:56:43;;;;;;;1.97;0.70;;;18.00;1.00;;;;;;5051179;28;20732;-60
2021/12/31 11:59:09;;;;;;;1.23;1.13;;;18.10;1.00;;;;;;5060064;28;20511;-61
2021/12/31 12:01:37;;;;;;;1.53;0.90;;;18.10;1.00;;;;;;5052383;28;20977;-60
2021/12/31 12:04:45;;;;;;;1.40;0.83;;;18.00;1.00;;;;;;5051396;28;20187;-61
2021/12/31 12:07:11;;;;;;;1.50;1.00;;;;;;;;;;5058853;28;20470;-60
2021/12/31 12:09:36;;;;;;;0.80;0.80;;;18.00;1.00;;;;;;5050742;28;20434;-61
2021/12/31 12:12:03;;;;;;;4.17;1.30;;;18.00;1.00;;;;;;5050738;28;20468;-60
2021/12/31 12:14:31;;;;;;;1.93;0.77;;;17.80;1.00;;;;;;5050923;28;20186;-60
2021/12/31 12:16:59;;;;;;;1.60;1.10;;;17.90;1.00;;;;;;5071335;28;20981;-60
2021/12/31 12:19:47;;;;;;;1.20;1.10;;;17.90;1.00;;;;;;5051774;28;20587;-61
2021/12/31 12:22:34;;;;;;;1.73;1.30;;;17.80;1.00;;;;;;5050526;28;20419;-62
2021/12/31 12:25:04;;;;;;;2.40;1.23;;;17.90;1.00;;;;;;5050878;28;20413;-59
2021/12/31 12:27:31;;;;;;;1.50;1.20;;;17.80;1.00;;;;;;5050860;28;20627;-61
2021/12/31 12:29:57;;;;;;;1.43;0.90;;;17.90;1.00;;;;;;5058076;28;20436;-61
2021/12/31 12:32:36;;;;;;;1.30;0.90;;;18.00;1.00;;;;;;5059995;28;20497;-61
2021/12/31 12:35:14;;;;;;;1.33;1.13;;;17.80;1.00;;;;;;5050606;28;20954;-61
2021/12/31 12:37:41;;;;;;;1.27;1.17;;;17.70;1.00;;;;;;5050664;28;20447;-61
2021/12/31 12:40:07;;;;;;;2.00;1.20;;;17.80;1.00;;;;;;5051073;28;20397;-61
2021/12/31 12:42:33;;;;;;;1.60;0.90;;;;;;;;;;5054722;28;20412;-60
2021/12/31 12:45:00;;;;;;;1.73;1.20;;;17.40;1.00;;;;;;5070590;28;20414;-60
2021/12/31 12:47:26;;;;;;;1.60;1.07;;;17.40;1.00;;;;;;5056547;28;20426;-61
2021/12/31 12:49:55;;;;;;;1.47;0.97;;;17.30;1.00;;;;;;5069537;28;20928;-61
2021/12/31 12:52:21;;;;;;;1.60;1.13;;;;;;;;;;5056687;28;20202;-62
2021/12/31 12:54:47;;;;;;;1.77;1.30;;;;;;;;;;5050571;28;20451;-61
2021/12/31 12:57:23;;;;;;;1.97;0.93;;;17.40;1.00;;;;;;5052348;28;20910;-62
2021/12/31 12:59:49;;;;;;;1.50;1.13;;;;;;;;;;5050465;28;20420;-60
2021/12/31 13:02:16;;;;;;;1.57;1.20;;;;;;;;;;5058919;28;20471;-62
2021/12/31 13:04:42;;;;;;;1.23;1.13;;;;;;;;;;5054560;28;20467;-62
2021/12/31 13:07:10;;;;;;;1.87;1.10;;;;;;;;;;5051268;28;20855;-61
2021/12/31 13:09:36;;;;;;;1.40;1.30;;;;;;;;;;5059475;28;20901;-61
2021/12/31 13:12:04;;;;;;;1.10;0.80;;;;;;;;;;5049670;28;20571;-61
2021/12/31 13:14:35;;;;;;;1.10;1.00;;;17.40;1.00;;;;;;5049984;28;20447;-61
2021/12/31 13:17:02;;;;;;;1.30;1.17;;;;;;;;;;5052732;28;20950;-60
2021/12/31 13:19:29;;;;;;;1.27;1.17;;;17.00;1.00;;;;;;5061733;28;20514;-62
2021/12/31 13:22:00;;;;;;;1.17;1.07;;;17.30;1.00;;;;;;5049571;28;20446;-59
2021/12/31 13:24:26;;;;;;;1.23;1.10;;;17.40;1.00;;;;;;5047819;28;20423;-61
2021/12/31 13:26:53;;;;;;;2.20;1.37;;;17.40;1.00;;;;;;5049525;28;20462;-60
2021/12/31 13:29:36;;;;;;;3.13;1.20;;;17.30;1.00;;;;;;5065736;28;20751;-61
2021/12/31 13:32:10;;;;;;;2.93;1.17;;;17.30;1.00;;;;;;5049788;28;20748;-60
2021/12/31 13:34:44;;;;;;;2.97;1.10;;;17.30;1.00;;;;;;5046778;28;20549;-61
2021/12/31 13:37:23;;;;;;;2.20;1.00;;;17.30;1.00;;;;;;5049135;28;20425;-61
2021/12/31 13:39:49;;;;;;;1.27;1.17;;;17.20;1.00;;;;;;5048614;28;20447;-60
2021/12/31 13:42:18;;;;;;;2.10;1.10;;;17.20;1.00;;;;;;5060593;28;20423;-62
2021/12/31 13:44:49;;;;;;;3.00;1.37;;;17.10;1.00;;;;;;5048366;28;20628;-61